ADDS METAR Data INFO
IDs: Format: Raw Decoded Include TAF

Data at: 0026 UTC 11 Dec 2017

KIOW 102352Z AUTO 30003KT 10SM CLR 01/M06 A3008 RMK AO2 SLP195 T00061056 10050 20006 51018
KIOW 102252Z AUTO 32005KT 10SM CLR 03/M04 A3008 RMK AO2 SLP192 T00281044
KIOW 102152Z AUTO 31008KT 10SM CLR 04/M04 A3006 RMK AO2 SLP185 T00441044
KIOW 102052Z AUTO 32011KT 10SM CLR 04/M04 A3003 RMK AO2 SLP176 T00441044 51016
KIOW 101952Z AUTO 31011G17KT 10SM CLR 05/M04 A3002 RMK AO2 SLP171 T00501044
KIOW 101852Z AUTO 32016G23KT 10SM CLR 04/M04 A3000 RMK AO2 SLP165 T00441044
KIOW 101752Z AUTO 33012KT 10SM CLR 04/M04 A2998 RMK AO2 SLP159 T00441039 10044 21039 51013
KIOW 101652Z AUTO 32013KT 10SM CLR 03/M04 A2998 RMK AO2 SLP159 T00331044
KIOW 101552Z AUTO 32012KT 10SM CLR 01/M04 A2995 RMK AO2 SLP152 T00111044
KIOW 101452Z AUTO 29010KT 10SM CLR M01/M06 A2994 RMK AO2 SLP148 T10111061 53004
KIOW 101352Z AUTO 27007KT 10SM CLR M03/M07 A2993 RMK AO2 SLP144 T10331072
KIOW 101252Z AUTO 25007KT 10SM CLR M03/M08 A2992 RMK AO2 SLP142 T10331078
KIOW 101152Z AUTO 25005KT 10SM CLR M04/M08 A2993 RMK AO2 SLP143 T10391083 11039 21061 55024
KIOW 101052Z AUTO 20009KT 10SM CLR M04/M09 A2993 RMK AO2 SLP142 T10441089
KIOW 100952Z AUTO 18007KT 10SM CLR M05/M09 A2996 RMK AO2 SLP154 T10501089
KIOW 100852Z AUTO 17006KT 10SM FEW110 M06/M09 A3000 RMK AO2 SLP168 T10561094 56035
KIOW 100752Z AUTO 18007KT 10SM OVC100 M04/M09 A3002 RMK AO2 SLP175 T10441094
KIOW 100652Z AUTO 18003KT 10SM CLR M06/M09 A3006 RMK AO2 SLP186 T10561094
KIOW 100552Z AUTO 00000KT 10SM CLR M06/M10 A3011 RMK AO2 SLP203 T10561100 11033 21072 400061072 57013
KIOW 100452Z AUTO 00000KT 10SM SCT120 M06/M10 A3012 RMK AO2 SLP208 T10561100
KIOW 100352Z AUTO 27003KT 10SM FEW120 M06/M10 A3013 RMK AO2 SLP212 T10611100
KIOW 100252Z AUTO 26004KT 10SM CLR M07/M11 A3014 RMK AO2 SLP217 T10671111 58002
KIOW 100152Z AUTO 27006KT 10SM CLR M07/M11 A3015 RMK AO2 SLP221 T10671106
KIOW 100052Z AUTO 27007KT 10SM CLR M04/M10 A3015 RMK AO2 SLP220 T10441100
KIOW 092352Z AUTO 28007KT 10SM CLR M03/M10 A3015 RMK AO2 SLP218 T10331100 10006 21033 51018
KIOW 092252Z AUTO 30009KT 10SM CLR M02/M11 A3014 RMK AO2 SLP214 T10221106
KIOW 092152Z AUTO 30011KT 10SM CLR M01/M11 A3012 RMK AO2 SLP209 T10111106
KIOW 092052Z AUTO 31015G22KT 10SM CLR M01/M11 A3010 RMK AO2 SLP198 T10061111 53016
KIOW 091952Z AUTO 33015G21KT 10SM CLR 00/M11 A3007 RMK AO2 SLP190 T00001111
KIOW 091852Z AUTO 32011G21KT 10SM FEW040 00/M11 A3006 RMK AO2 SLP186 T00001111
KIOW 091752Z AUTO 32017G22KT 10SM BKN040 M01/M11 A3005 RMK AO2 SLP183 T10061106 10006 21011 51025
KIOW 091652Z AUTO 32015KT 10SM BKN039 M01/M11 A3004 RMK AO2 SLP180 T10111106
KIOW 091552Z AUTO 33017G25KT 10SM OVC039 M01/M11 A3001 RMK AO2 SLP169 T10111106
KIOW 091452Z AUTO 35009G21KT 10SM OVC035 M01/M09 A2997 RMK AO2 PK WND 36028/1408 SLP156 T10111094 51043
KIOW 091352Z AUTO 35014KT 10SM OVC035 M01/M09 A2995 RMK AO2 PK WND 36029/1331 SLP148 T10111094
KIOW 091252Z AUTO 35014G27KT 10SM OVC040 M01/M10 A2990 RMK AO2 PK WND 36030/1232 SLP132 T10061100